Time;durP1;ratioP1;P1;durP2;ratioP2;P2;SDS_P1;SDS_P2;PMS_P1;PMS_P2;Temp;Humidity;BMP_temperature;BMP_pressure;BME280_temperature;BME280_humidity;BME280_pressure;Samples;Min_cycle;Max_cycle;Signal;HPM_P1;HPM_P2
2024/03/21 00:00:19;;;;;;;19.38;14.63;;;14.50;68.90;;;;;;4842679;29;20427;-78
2024/03/21 00:03:04;;;;;;;20.67;14.82;;;14.50;68.90;;;;;;4863371;29;20260;-82
2024/03/21 00:05:48;;;;;;;19.13;15.60;;;14.40;68.80;;;;;;4839374;29;20834;-79
2024/03/21 00:08:33;;;;;;;22.02;15.73;;;14.40;68.90;;;;;;4849171;29;20476;-83
2024/03/21 00:11:20;;;;;;;19.70;15.43;;;14.40;68.90;;;;;;4859488;29;20669;-79
2024/03/21 00:14:05;;;;;;;21.45;14.40;;;14.40;68.90;;;;;;4844421;29;20048;-80
2024/03/21 00:16:49;;;;;;;21.58;15.38;;;14.40;69.00;;;;;;4863635;29;20133;-79
2024/03/21 00:19:34;;;;;;;18.58;15.13;;;14.40;69.00;;;;;;4844837;29;20469;-83
2024/03/21 00:22:19;;;;;;;18.98;14.25;;;14.40;69.00;;;;;;4852296;29;20032;-79
2024/03/21 00:25:05;;;;;;;20.33;15.25;;;14.40;69.10;;;;;;4847358;29;20431;-80
2024/03/21 00:27:51;;;;;;;20.90;15.43;;;14.40;69.10;;;;;;4847599;29;20047;-79
2024/03/21 00:30:35;;;;;;;19.40;15.68;;;14.30;69.00;;;;;;4860068;29;20068;-80
2024/03/21 00:33:20;;;;;;;18.35;15.52;;;14.30;69.00;;;;;;4845837;29;20044;-79
2024/03/21 00:36:05;;;;;;;21.50;15.88;;;14.30;69.00;;;;;;4855064;29;20271;-78
2024/03/21 00:38:50;;;;;;;19.80;15.48;;;14.30;69.10;;;;;;4844770;29;20125;-86
2024/03/21 00:41:34;;;;;;;18.05;13.93;;;14.30;69.20;;;;;;4855042;29;20531;-79
2024/03/21 00:44:22;;;;;;;21.88;16.52;;;14.30;69.20;;;;;;4856147;29;20456;-85
2024/03/21 00:47:07;;;;;;;20.60;15.25;;;14.30;69.20;;;;;;4868260;29;20053;-79
2024/03/21 00:49:52;;;;;;;19.15;15.00;;;14.30;69.30;;;;;;4851383;29;20093;-79
2024/03/21 00:52:37;;;;;;;19.70;15.68;;;14.20;69.20;;;;;;4860494;29;20202;-80
2024/03/21 00:55:22;;;;;;;18.83;15.18;;;14.20;69.20;;;;;;4859449;29;20037;-79
2024/03/21 00:58:07;;;;;;;20.63;15.00;;;14.20;69.20;;;;;;4848145;29;20072;-79
2024/03/21 01:00:52;;;;;;;17.67;14.32;;;14.20;69.40;;;;;;4841353;29;20396;-80
2024/03/21 01:03:36;;;;;;;18.58;14.68;;;14.20;69.40;;;;;;4860401;29;20097;-81
2024/03/21 01:06:21;;;;;;;19.98;15.68;;;14.20;69.50;;;;;;4856643;29;20060;-78
2024/03/21 01:09:11;;;;;;;18.48;15.05;;;14.20;69.50;;;;;;4854498;29;20043;-80
2024/03/21 01:11:58;;;;;;;19.48;14.70;;;14.20;69.50;;;;;;4835646;29;20053;-81
2024/03/21 01:14:43;;;;;;;19.38;15.25;;;14.20;69.50;;;;;;4845142;29;20064;-80
2024/03/21 01:17:27;;;;;;;18.98;15.25;;;14.10;69.40;;;;;;4852662;29;20251;-78
2024/03/21 01:20:12;;;;;;;18.67;14.55;;;14.10;69.40;;;;;;4848776;29;20141;-78
2024/03/21 01:22:58;;;;;;;17.40;14.48;;;14.10;69.40;;;;;;4862228;29;20041;-80
2024/03/21 01:25:44;;;;;;;17.58;13.95;;;14.10;69.50;;;;;;4849881;29;20113;-78
2024/03/21 01:28:30;;;;;;;16.60;13.15;;;14.10;69.50;;;;;;4861756;29;20452;-79
2024/03/21 01:31:16;;;;;;;16.92;14.02;;;14.10;69.50;;;;;;4854607;29;20173;-78
2024/03/21 01:34:01;;;;;;;17.38;13.18;;;14.00;69.40;;;;;;4852056;29;20172;-81
2024/03/21 01:36:52;;;;;;;15.75;13.23;;;14.10;69.60;;;;;;4844773;29;20094;-80
2024/03/21 01:39:37;;;;;;;16.50;13.98;;;14.10;69.60;;;;;;4864571;29;20133;-78
2024/03/21 01:42:22;;;;;;;17.92;13.45;;;14.00;69.40;;;;;;4863093;29;20297;-81
2024/03/21 01:45:10;;;;;;;15.10;12.88;;;14.00;69.40;;;;;;4867338;29;20698;-79
2024/03/21 01:47:58;;;;;;;13.73;12.30;;;14.00;69.40;;;;;;4845320;29;20056;-81
2024/03/21 01:50:44;;;;;;;15.07;11.70;;;14.00;69.50;;;;;;4858938;29;20101;-79
2024/03/21 01:53:31;;;;;;;16.25;12.52;;;14.00;69.50;;;;;;4868173;29;20052;-77
2024/03/21 01:56:16;;;;;;;16.50;13.18;;;14.00;69.50;;;;;;4865620;29;20134;-81
2024/03/21 01:59:01;;;;;;;14.35;12.43;;;13.90;69.40;;;;;;4857037;29;20382;-86
2024/03/21 02:01:49;;;;;;;16.63;13.32;;;13.90;69.40;;;;;;4870850;29;20035;-82
2024/03/21 02:04:37;;;;;;;14.38;11.38;;;13.90;69.50;;;;;;4867589;29;20502;-79
2024/03/21 02:07:22;;;;;;;16.00;12.18;;;13.90;69.50;;;;;;4856118;29;20514;-80
2024/03/21 02:10:08;;;;;;;15.45;13.23;;;13.90;69.60;;;;;;4852073;29;20105;-77
2024/03/21 02:12:53;;;;;;;16.73;12.70;;;13.90;69.60;;;;;;4857352;29;20060;-79
2024/03/21 02:15:38;;;;;;;15.70;13.10;;;13.80;69.40;;;;;;4854912;29;20044;-85
2024/03/21 02:18:23;;;;;;;15.70;13.05;;;13.80;69.40;;;;;;4852826;29;20044;-79
2024/03/21 02:24:11;;;;;;;17.42;12.52;;;13.80;69.40;;;;;;4858563;29;20125;-79
2024/03/21 02:26:56;;;;;;;17.85;13.77;;;13.80;69.40;;;;;;4860861;29;20480;-77
2024/03/21 02:29:41;;;;;;;15.80;12.65;;;13.80;69.40;;;;;;4872397;29;20143;-77
2024/03/21 02:32:32;;;;;;;17.02;14.05;;;13.80;69.40;;;;;;4854754;29;20416;-82
2024/03/21 02:35:17;;;;;;;15.23;12.57;;;13.70;69.30;;;;;;4866123;29;20083;-79
2024/03/21 02:38:02;;;;;;;18.92;13.20;;;13.70;69.30;;;;;;4857621;29;20049;-80
2024/03/21 02:40:46;;;;;;;16.95;12.88;;;13.70;69.30;;;;;;4835933;29;20291;-78
2024/03/21 02:43:31;;;;;;;19.73;15.35;;;13.70;69.30;;;;;;4843926;29;20550;-78
2024/03/21 02:46:16;;;;;;;18.50;14.65;;;13.60;69.20;;;;;;4862000;29;20048;-76
2024/03/21 02:49:01;;;;;;;20.02;16.15;;;13.60;69.20;;;;;;4850229;29;20049;-80
2024/03/21 02:51:45;;;;;;;22.58;16.75;;;13.60;69.20;;;;;;4845408;29;20121;-77
2024/03/21 02:54:32;;;;;;;19.88;16.88;;;13.60;69.20;;;;;;4862559;29;20060;-83
2024/03/21 02:57:17;;;;;;;24.38;18.48;;;13.50;69.10;;;;;;4846272;29;20060;-78
2024/03/21 03:00:03;;;;;;;21.98;17.23;;;13.50;69.10;;;;;;4860981;29;20094;-79
2024/03/21 03:02:48;;;;;;;22.38;17.88;;;13.50;69.20;;;;;;4852907;29;20060;-81
2024/03/21 03:05:45;;;;;;;21.60;16.95;;;13.40;69.00;;;;;;4858178;29;20453;-78
2024/03/21 03:08:30;;;;;;;19.98;16.77;;;13.40;69.10;;;;;;4856372;29;20036;-81
2024/03/21 03:11:14;;;;;;;19.20;15.38;;;13.40;69.10;;;;;;4854067;29;20094;-79
2024/03/21 03:13:59;;;;;;;20.55;16.50;;;13.40;69.10;;;;;;4845696;29;20448;-77
2024/03/21 03:16:43;;;;;;;21.13;16.65;;;13.40;69.20;;;;;;4841946;29;20102;-82
2024/03/21 03:19:28;;;;;;;18.92;15.68;;;13.30;69.00;;;;;;4848898;29;20430;-82
2024/03/21 03:22:13;;;;;;;19.27;14.75;;;13.40;69.20;;;;;;4846144;29;20080;-78
2024/03/21 03:24:57;;;;;;;26.05;16.45;;;13.30;69.10;;;;;;4855984;29;20045;-81
2024/03/21 03:27:43;;;;;;;20.48;15.52;;;13.30;69.20;;;;;;4848937;29;20482;-81
2024/03/21 03:30:28;;;;;;;19.33;15.05;;;13.30;69.20;;;;;;4856840;29;20266;-78
2024/03/21 03:36:21;;;;;;;21.45;15.02;;;13.20;69.10;;;;;;4863523;29;20089;-78
2024/03/21 03:39:07;;;;;;;20.13;15.70;;;13.20;69.10;;;;;;4852234;29;20361;-78
2024/03/21 03:41:52;;;;;;;22.10;16.75;;;13.20;69.10;;;;;;4845372;29;20045;-79
2024/03/21 03:44:43;;;;;;;24.30;17.23;;;13.20;69.10;;;;;;4848136;29;20263;-79
2024/03/21 03:47:28;;;;;;;25.60;16.63;;;13.20;69.10;;;;;;4857245;29;20483;-79
2024/03/21 03:50:12;;;;;;;23.38;16.30;;;13.10;68.90;;;;;;4858948;29;20105;-78
2024/03/21 03:52:57;;;;;;;22.95;17.23;;;13.10;68.90;;;;;;4852819;29;20731;-79
2024/03/21 03:55:42;;;;;;;22.10;16.83;;;13.10;69.00;;;;;;4857085;29;20080;-83
2024/03/21 03:58:26;;;;;;;22.88;16.77;;;13.10;69.00;;;;;;4863683;29;20049;-83
2024/03/21 04:01:12;;;;;;;21.88;16.60;;;13.10;69.10;;;;;;4857765;29;20539;-77
2024/03/21 04:03:56;;;;;;;22.08;16.65;;;13.00;68.90;;;;;;4860052;29;20071;-84
2024/03/21 04:06:42;;;;;;;19.65;15.50;;;13.00;69.00;;;;;;4847677;29;20052;-83
2024/03/21 04:09:26;;;;;;;20.45;15.02;;;13.00;69.00;;;;;;4852642;29;20042;-77
2024/03/21 04:12:11;;;;;;;20.13;15.50;;;13.00;69.00;;;;;;4854793;29;20530;-79
2024/03/21 04:14:55;;;;;;;21.73;16.50;;;13.00;69.10;;;;;;4861846;29;20048;-78
2024/03/21 04:17:40;;;;;;;20.55;14.98;;;13.00;69.10;;;;;;4872387;29;20477;-81
2024/03/21 04:20:27;;;;;;;20.63;13.82;;;12.90;68.90;;;;;;4876008;29;20419;-78
2024/03/21 04:23:12;;;;;;;19.48;14.95;;;12.90;69.00;;;;;;4872502;29;20090;-84
2024/03/21 04:25:56;;;;;;;19.05;14.48;;;12.90;69.00;;;;;;4890040;29;20048;-77
2024/03/21 04:28:44;;;;;;;19.75;14.73;;;12.90;69.00;;;;;;4871567;29;20087;-78
2024/03/21 04:31:31;;;;;;;15.73;13.02;;;12.80;68.90;;;;;;4861911;29;20102;-81
2024/03/21 04:34:16;;;;;;;16.92;13.40;;;12.80;68.90;;;;;;4866255;29;20152;-80
2024/03/21 04:37:01;;;;;;;17.17;13.40;;;12.80;68.90;;;;;;4861639;29;20124;-82
2024/03/21 04:39:50;;;;;;;15.23;12.20;;;12.70;68.70;;;;;;4859990;29;20048;-83
2024/03/21 04:42:34;;;;;;;14.32;11.30;;;12.80;68.90;;;;;;4846743;29;20136;-80
2024/03/21 04:45:21;;;;;;;15.13;12.82;;;12.70;68.80;;;;;;4860908;29;20085;-79
2024/03/21 04:48:06;;;;;;;15.00;12.82;;;12.70;68.80;;;;;;4843125;29;20276;-77
2024/03/21 04:50:51;;;;;;;13.48;11.88;;;12.70;68.90;;;;;;4851174;29;20049;-77
2024/03/21 04:53:35;;;;;;;14.32;12.25;;;12.70;68.90;;;;;;4871025;29;20067;-84
2024/03/21 04:56:20;;;;;;;14.25;11.68;;;12.60;68.70;;;;;;4850650;29;20100;-79
2024/03/21 04:59:05;;;;;;;17.33;12.75;;;12.70;68.90;;;;;;4846419;29;20048;-78
2024/03/21 05:01:49;;;;;;;13.30;10.93;;;12.60;68.80;;;;;;4855112;29;20399;-79
2024/03/21 05:04:37;;;;;;;15.88;11.65;;;12.60;68.90;;;;;;4868660;29;20463;-78
2024/03/21 05:07:22;;;;;;;12.50;10.75;;;12.60;68.90;;;;;;4846547;29;20561;-78
2024/03/21 05:10:07;;;;;;;14.65;11.43;;;12.60;68.90;;;;;;4857541;29;20570;-80
2024/03/21 05:12:52;;;;;;;13.60;11.10;;;12.60;69.00;;;;;;4864742;29;20100;-78
2024/03/21 05:15:37;;;;;;;13.52;11.48;;;12.50;68.80;;;;;;4846056;29;20170;-78
2024/03/21 05:18:21;;;;;;;16.20;11.90;;;12.50;68.90;;;;;;4855007;29;20266;-78
2024/03/21 05:21:06;;;;;;;12.57;10.40;;;12.50;69.00;;;;;;4845498;29;20501;-80
2024/03/21 05:23:51;;;;;;;13.93;11.70;;;12.50;68.90;;;;;;4849129;29;20125;-78
2024/03/21 05:26:36;;;;;;;14.20;11.32;;;12.50;69.00;;;;;;4855541;29;20049;-80
2024/03/21 05:29:20;;;;;;;12.93;11.45;;;12.50;69.00;;;;;;4857205;29;20408;-78
2024/03/21 05:32:05;;;;;;;13.10;10.63;;;12.50;69.00;;;;;;4845380;29;20838;-85
2024/03/21 05:34:50;;;;;;;13.20;10.82;;;12.40;68.90;;;;;;4857368;29;20124;-79
2024/03/21 05:37:35;;;;;;;13.88;11.73;;;12.40;68.90;;;;;;4847646;29;20117;-84
2024/03/21 05:40:19;;;;;;;15.38;12.00;;;12.40;68.90;;;;;;4836433;29;20386;-79
2024/03/21 05:43:07;;;;;;;12.15;10.35;;;12.40;69.00;;;;;;4843947;29;20113;-79
2024/03/21 05:45:51;;;;;;;13.40;10.77;;;12.40;69.00;;;;;;4859032;29;20763;-83
2024/03/21 05:48:41;;;;;;;12.05;10.48;;;12.40;69.00;;;;;;4847903;29;20114;-82
2024/03/21 05:51:25;;;;;;;12.40;10.82;;;12.40;69.00;;;;;;4846268;29;20048;-78
2024/03/21 05:54:10;;;;;;;14.30;11.45;;;12.40;69.10;;;;;;4845669;29;20346;-81
2024/03/21 05:56:58;;;;;;;12.48;10.48;;;12.40;69.10;;;;;;4857604;29;20070;-78
2024/03/21 05:59:42;;;;;;;13.23;11.18;;;12.40;69.10;;;;;;4840657;29;20218;-87
2024/03/21 06:02:33;;;;;;;13.13;10.73;;;12.40;69.20;;;;;;4843185;29;20044;-79
2024/03/21 06:05:18;;;;;;;12.30;10.75;;;12.40;69.20;;;;;;4858873;29;20048;-84
2024/03/21 06:08:03;;;;;;;10.73;9.43;;;12.40;69.80;;;;;;4852134;29;20186;-79
2024/03/21 06:10:48;;;;;;;11.65;10.35;;;12.40;69.30;;;;;;4839496;29;20101;-79
2024/03/21 06:13:34;;;;;;;11.70;10.43;;;12.40;69.30;;;;;;4852283;29;20081;-79
2024/03/21 06:16:18;;;;;;;12.27;10.63;;;12.40;69.30;;;;;;4853509;29;20052;-78
2024/03/21 06:19:03;;;;;;;11.68;10.00;;;12.30;69.10;;;;;;4858285;29;20109;-78
2024/03/21 06:21:48;;;;;;;11.63;10.02;;;12.40;69.30;;;;;;4845422;29;20084;-79
2024/03/21 06:24:33;;;;;;;12.55;9.75;;;12.40;69.40;;;;;;4842936;29;20435;-82
2024/03/21 06:27:17;;;;;;;10.98;9.65;;;12.40;69.40;;;;;;4845394;29;20055;-79
2024/03/21 06:30:02;;;;;;;12.10;9.95;;;12.40;69.40;;;;;;4859354;29;20053;-77
2024/03/21 06:32:47;;;;;;;10.68;9.10;;;12.40;69.50;;;;;;4857722;29;20085;-80
2024/03/21 06:35:32;;;;;;;11.43;9.80;;;12.40;69.50;;;;;;4851279;29;20070;-80
2024/03/21 06:38:17;;;;;;;11.70;9.00;;;12.40;69.60;;;;;;4847627;29;20191;-79
2024/03/21 06:41:01;;;;;;;10.70;9.63;;;12.40;69.60;;;;;;4844529;29;20049;-78
2024/03/21 06:43:46;;;;;;;10.30;9.13;;;12.40;69.60;;;;;;4848566;29;20101;-81
2024/03/21 06:46:31;;;;;;;10.70;9.60;;;12.40;69.60;;;;;;4857547;29;20135;-85
2024/03/21 06:49:16;;;;;;;11.57;10.18;;;12.40;69.60;;;;;;4862381;29;20101;-80
2024/03/21 06:52:02;;;;;;;10.88;9.43;;;12.40;69.60;;;;;;4867704;29;20181;-78
2024/03/21 06:54:47;;;;;;;10.77;9.20;;;12.50;69.90;;;;;;4859638;29;20044;-77
2024/03/21 06:57:32;;;;;;;11.75;8.88;;;12.50;69.90;;;;;;4850295;29;20104;-78
2024/03/21 07:00:19;;;;;;;11.45;9.45;;;12.60;70.00;;;;;;4850387;29;20091;-86
2024/03/21 07:03:04;;;;;;;8.35;7.55;;;12.60;70.00;;;;;;4844029;29;20506;-84
2024/03/21 07:05:49;;;;;;;9.32;7.45;;;12.60;70.20;;;;;;4845116;29;20647;-80
2024/03/21 07:08:34;;;;;;;8.50;7.28;;;12.70;70.70;;;;;;4843350;29;20435;-79
2024/03/21 07:11:18;;;;;;;8.85;6.85;;;12.80;71.00;;;;;;4848374;29;20506;-78
2024/03/21 07:14:05;;;;;;;10.93;7.40;;;12.90;71.50;;;;;;4870896;29;20587;-79
2024/03/21 07:16:49;;;;;;;8.57;6.57;;;13.00;71.50;;;;;;4862059;29;20448;-81
2024/03/21 07:19:34;;;;;;;8.88;6.97;;;13.10;71.80;;;;;;4858147;29;20104;-80
2024/03/21 07:22:19;;;;;;;14.95;11.25;;;13.10;72.00;;;;;;4862723;29;20059;-81
2024/03/21 07:25:06;;;;;;;10.60;8.32;;;13.20;72.40;;;;;;4858263;29;20136;-80
2024/03/21 07:27:50;;;;;;;12.98;8.50;;;13.40;72.80;;;;;;4873431;29;20173;-79
2024/03/21 07:30:35;;;;;;;10.77;8.30;;;13.50;73.00;;;;;;4866461;29;20064;-83
2024/03/21 07:33:20;;;;;;;9.70;7.53;;;13.50;73.00;;;;;;4865396;29;20102;-81
2024/03/21 07:36:05;;;;;;;11.80;7.85;;;13.60;73.20;;;;;;4851721;29;20056;-82
2024/03/21 07:38:50;;;;;;;10.27;7.13;;;13.70;73.30;;;;;;4857303;29;20582;-80
2024/03/21 07:41:35;;;;;;;10.10;8.20;;;13.70;73.20;;;;;;4873434;29;20232;-87
2024/03/21 07:44:20;;;;;;;8.05;7.25;;;13.70;73.20;;;;;;4866385;29;20069;-86
2024/03/21 07:47:05;;;;;;;10.52;7.88;;;13.80;73.30;;;;;;4872639;29;20045;-82
2024/03/21 07:49:51;;;;;;;8.73;7.40;;;13.70;73.10;;;;;;4859564;29;20044;-79
2024/03/21 07:52:37;;;;;;;10.50;7.95;;;13.80;73.20;;;;;;4864723;29;20053;-82
2024/03/21 07:55:22;;;;;;;11.73;7.10;;;13.80;73.10;;;;;;4860576;29;20047;-81
2024/03/21 07:58:07;;;;;;;11.82;7.70;;;13.90;73.20;;;;;;4865729;29;20106;-81
2024/03/21 08:00:51;;;;;;;8.02;6.35;;;13.90;73.10;;;;;;4843160;29;20036;-80
2024/03/21 08:03:36;;;;;;;8.57;6.50;;;13.90;73.00;;;;;;4857786;29;20049;-84
2024/03/21 08:06:20;;;;;;;11.63;6.72;;;14.00;73.10;;;;;;4853932;29;20610;-79
2024/03/21 08:09:05;;;;;;;7.90;6.95;;;14.00;73.00;;;;;;4862100;29;20052;-80
2024/03/21 08:11:51;;;;;;;9.80;6.20;;;14.10;73.00;;;;;;4858464;29;20053;-86
2024/03/21 08:14:36;;;;;;;7.70;5.70;;;14.20;73.00;;;;;;4846804;29;20364;-83
2024/03/21 08:17:21;;;;;;;7.55;5.55;;;14.20;72.80;;;;;;4867604;29;20041;-84
2024/03/21 08:20:07;;;;;;;9.27;6.30;;;14.30;72.90;;;;;;4861652;29;20460;-80
2024/03/21 08:22:55;;;;;;;7.15;5.03;;;14.30;72.70;;;;;;4858931;29;20044;-90
2024/03/21 08:25:39;;;;;;;7.30;5.03;;;14.40;72.80;;;;;;4866593;29;20099;-86
2024/03/21 08:28:24;;;;;;;5.45;4.47;;;14.50;72.80;;;;;;4843670;29;20085;-85
2024/03/21 08:31:08;;;;;;;8.40;5.15;;;14.50;72.60;;;;;;4858368;29;20425;-79
2024/03/21 08:33:53;;;;;;;6.10;5.00;;;14.60;72.50;;;;;;4855950;29;20043;-82
2024/03/21 08:36:38;;;;;;;8.65;5.13;;;14.70;72.40;;;;;;4857060;29;20236;-80
2024/03/21 08:39:29;;;;;;;5.65;5.07;;;14.70;72.10;;;;;;4851653;29;20064;-79
2024/03/21 08:42:13;;;;;;;6.22;4.55;;;14.80;72.00;;;;;;4858801;29;20055;-79
2024/03/21 08:44:58;;;;;;;4.53;4.13;;;14.80;71.80;;;;;;4847860;29;20039;-79
2024/03/21 08:47:43;;;;;;;6.13;4.53;;;14.80;71.60;;;;;;4844588;29;20058;-79
2024/03/21 08:50:27;;;;;;;5.68;4.47;;;14.80;71.40;;;;;;4861125;29;20072;-83
2024/03/21 08:53:23;;;;;;;5.38;4.30;;;14.80;71.20;;;;;;4853470;29;20647;-83
2024/03/21 08:56:08;;;;;;;6.97;4.30;;;14.80;71.10;;;;;;4862069;29;20047;-79
2024/03/21 08:58:55;;;;;;;6.78;4.38;;;14.90;71.10;;;;;;4857609;29;20068;-80
2024/03/21 09:01:40;;;;;;;5.35;4.85;;;14.90;71.00;;;;;;4857195;29;20146;-81
2024/03/21 09:04:24;;;;;;;5.60;4.97;;;14.90;70.80;;;;;;4867650;29;20440;-78
2024/03/21 09:07:09;;;;;;;7.50;4.95;;;14.90;70.70;;;;;;4865183;29;20385;-79
2024/03/21 09:09:54;;;;;;;5.38;4.55;;;14.90;70.50;;;;;;4862844;29;20037;-84
2024/03/21 09:12:42;;;;;;;7.07;4.70;;;15.00;70.50;;;;;;4866539;29;20121;-87
2024/03/21 09:15:27;;;;;;;5.63;4.45;;;15.10;70.50;;;;;;4850104;29;20313;-80
2024/03/21 09:18:11;;;;;;;5.97;4.50;;;15.10;70.20;;;;;;4847455;29;20182;-78
2024/03/21 09:20:57;;;;;;;5.80;4.15;;;15.10;70.00;;;;;;4862555;29;20041;-79
2024/03/21 09:23:42;;;;;;;6.47;4.68;;;15.10;69.80;;;;;;4849329;29;20334;-87
2024/03/21 09:26:27;;;;;;;6.35;4.43;;;15.20;69.80;;;;;;4851600;29;20040;-81
2024/03/21 09:29:14;;;;;;;5.65;4.55;;;15.10;69.50;;;;;;4856195;29;20097;-78
2024/03/21 09:31:59;;;;;;;5.47;4.60;;;15.10;69.40;;;;;;4854632;29;20153;-86
2024/03/21 09:34:49;;;;;;;5.22;4.05;;;15.20;69.50;;;;;;4864548;29;20554;-83
2024/03/21 09:37:34;;;;;;;6.20;4.22;;;15.10;69.20;;;;;;4847602;29;20117;-82
2024/03/21 09:40:20;;;;;;;5.25;4.00;;;15.10;69.10;;;;;;4862849;29;20068;-83
2024/03/21 09:43:08;;;;;;;4.32;3.92;;;15.10;69.00;;;;;;4851931;29;20080;-88
2024/03/21 09:45:53;;;;;;;6.25;4.90;;;15.10;68.90;;;;;;4845017;29;20064;-81
2024/03/21 09:48:37;;;;;;;5.22;4.18;;;15.00;68.70;;;;;;4861569;29;20055;-79
2024/03/21 09:51:26;;;;;;;4.43;4.03;;;15.10;68.80;;;;;;4864211;29;20053;-80
2024/03/21 09:54:15;;;;;;;4.75;4.35;;;15.10;68.70;;;;;;4847388;29;20189;-87
2024/03/21 09:57:01;;;;;;;5.32;4.82;;;15.10;68.60;;;;;;4860527;29;20523;-81
2024/03/21 09:59:45;;;;;;;5.43;4.93;;;15.10;68.50;;;;;;4861393;29;20065;-81
2024/03/21 10:02:31;;;;;;;7.40;4.45;;;15.10;68.40;;;;;;4869165;29;20046;-90
2024/03/21 10:05:23;;;;;;;4.70;4.30;;;15.20;68.40;;;;;;4869613;29;20068;-85
2024/03/21 10:08:11;;;;;;;6.55;4.47;;;15.20;68.20;;;;;;4869094;29;20189;-82
2024/03/21 10:10:57;;;;;;;5.63;4.53;;;15.30;68.30;;;;;;4890102;29;20086;-80
2024/03/21 10:13:42;;;;;;;7.30;5.95;;;15.50;68.50;;;;;;4880544;29;20098;-81
2024/03/21 10:16:29;;;;;;;5.63;4.50;;;15.60;68.30;;;;;;4891378;29;20062;-78
2024/03/21 10:19:17;;;;;;;6.28;4.50;;;15.70;68.10;;;;;;4871021;29;20159;-83
2024/03/21 10:22:02;;;;;;;5.00;4.50;;;15.80;67.90;;;;;;4887285;29;20049;-84
2024/03/21 10:24:55;;;;;;;4.93;4.40;;;16.00;68.00;;;;;;4862027;29;20105;-79
2024/03/21 10:27:41;;;;;;;5.23;4.00;;;16.20;68.00;;;;;;4862061;29;20033;-81
2024/03/21 10:30:27;;;;;;;4.50;4.07;;;16.30;67.80;;;;;;4869785;29;20057;-84
2024/03/21 10:33:22;;;;;;;7.00;4.57;;;16.50;67.80;;;;;;4860585;29;20248;-81
2024/03/21 10:36:13;;;;;;;5.10;4.60;;;16.60;67.50;;;;;;4850273;29;20144;-79
2024/03/21 10:39:01;;;;;;;4.32;3.67;;;16.80;67.40;;;;;;4869172;29;20052;-81
2024/03/21 10:41:46;;;;;;;6.03;3.90;;;16.90;67.30;;;;;;4852447;29;20120;-81
2024/03/21 10:44:40;;;;;;;5.10;3.88;;;17.00;67.20;;;;;;4877996;29;20104;-80
2024/03/21 10:47:26;;;;;;;4.72;3.70;;;17.00;67.00;;;;;;4865968;29;20274;-80
2024/03/21 10:50:24;;;;;;;6.18;3.55;;;17.00;66.70;;;;;;4888502;29;20069;-83
2024/03/21 10:53:19;;;;;;;4.30;3.83;;;17.10;66.50;;;;;;4878473;29;20090;-78
2024/03/21 10:56:07;;;;;;;3.30;2.92;;;17.20;66.50;;;;;;4884703;29;20069;-81
2024/03/21 10:58:56;;;;;;;4.60;3.70;;;17.20;66.30;;;;;;4869949;29;20097;-80
2024/03/21 11:01:45;;;;;;;4.32;3.55;;;17.20;66.10;;;;;;4884903;29;20048;-79
2024/03/21 11:04:35;;;;;;;4.35;3.55;;;17.30;66.10;;;;;;4858996;29;20043;-87
2024/03/21 11:07:21;;;;;;;4.38;3.55;;;17.40;66.00;;;;;;4885375;29;20126;-79
2024/03/21 11:10:10;;;;;;;5.10;3.30;;;17.40;65.80;;;;;;4872546;29;20097;-79
2024/03/21 11:12:55;;;;;;;3.22;2.92;;;17.50;65.70;;;;;;4859098;29;20501;-78
2024/03/21 11:15:39;;;;;;;4.45;3.22;;;17.50;65.40;;;;;;4874314;29;20129;-79
2024/03/21 11:18:24;;;;;;;3.25;2.95;;;17.60;65.40;;;;;;4871400;29;20090;-80
2024/03/21 11:21:14;;;;;;;4.10;2.47;;;17.70;65.40;;;;;;4867359;29;20064;-84
2024/03/21 11:24:01;;;;;;;4.10;2.92;;;17.80;65.20;;;;;;4849533;29;20368;-80
2024/03/21 11:26:46;;;;;;;3.97;3.10;;;17.80;65.00;;;;;;4873060;29;20083;-80
2024/03/21 11:29:31;;;;;;;4.82;2.90;;;17.90;64.90;;;;;;4848609;29;20594;-80
2024/03/21 11:32:25;;;;;;;5.60;3.10;;;18.00;64.80;;;;;;4860369;29;20177;-83
2024/03/21 11:35:13;;;;;;;3.42;2.85;;;18.10;64.50;;;;;;4849893;29;20045;-87
2024/03/21 11:37:57;;;;;;;3.78;3.20;;;18.20;64.50;;;;;;4864282;29;20067;-87
2024/03/21 11:40:42;;;;;;;3.28;2.72;;;18.20;64.30;;;;;;4867284;29;20544;-81
2024/03/21 11:43:28;;;;;;;3.53;2.83;;;18.30;64.20;;;;;;4852145;29;20120;-83
2024/03/21 11:46:13;;;;;;;4.95;2.55;;;18.30;64.10;;;;;;4847077;29;20320;-80
2024/03/21 11:49:12;;;;;;;3.65;2.90;;;18.40;64.00;;;;;;4850853;29;20067;-80
2024/03/21 11:51:57;;;;;;;4.68;2.55;;;18.40;63.60;;;;;;4851493;29;20040;-80
2024/03/21 11:54:45;;;;;;;4.03;2.53;;;18.40;63.60;;;;;;4856573;29;20056;-80
2024/03/21 11:57:30;;;;;;;4.43;2.50;;;18.40;63.30;;;;;;4862913;29;20055;-82
2024/03/21 12:00:15;;;;;;;3.97;2.38;;;18.50;63.30;;;;;;4850579;29;20461;-81
2024/03/21 12:03:01;;;;;;;7.55;3.53;;;18.40;63.00;;;;;;4866146;29;20049;-81
2024/03/21 12:05:46;;;;;;;3.53;2.35;;;18.50;63.00;;;;;;4865645;29;20513;-85
2024/03/21 12:08:30;;;;;;;4.78;3.08;;;18.50;63.10;;;;;;4850996;29;20150;-82
2024/03/21 12:11:20;;;;;;;3.28;2.97;;;18.60;62.90;;;;;;4847727;29;20132;-81
2024/03/21 12:14:04;;;;;;;3.80;2.55;;;18.60;62.80;;;;;;4852618;29;20076;-81
2024/03/21 12:16:49;;;;;;;4.72;3.00;;;18.60;62.70;;;;;;4861322;29;20742;-83
2024/03/21 12:19:34;;;;;;;4.43;2.70;;;18.70;62.60;;;;;;4852172;29;20080;-83
2024/03/21 12:22:19;;;;;;;3.00;2.70;;;18.80;62.70;;;;;;4867252;29;20488;-81
2024/03/21 12:25:05;;;;;;;4.28;2.78;;;18.80;62.40;;;;;;4864974;29;20467;-80
2024/03/21 12:27:50;;;;;;;3.33;2.75;;;18.80;62.20;;;;;;4848225;29;20041;-79
2024/03/21 12:30:37;;;;;;;2.90;2.70;;;18.80;62.20;;;;;;4867461;29;20120;-80
2024/03/21 12:33:22;;;;;;;4.30;3.90;;;18.80;62.00;;;;;;4864343;29;20051;-79
2024/03/21 12:36:09;;;;;;;3.58;2.85;;;18.70;61.80;;;;;;4855318;29;20073;-80
2024/03/21 12:38:54;;;;;;;3.53;3.05;;;18.70;61.70;;;;;;4852546;29;20522;-79
2024/03/21 12:41:39;;;;;;;4.30;2.95;;;18.70;61.70;;;;;;4869524;29;20165;-80
2024/03/21 12:44:24;;;;;;;3.20;2.90;;;18.60;61.50;;;;;;4869883;29;20040;-83
2024/03/21 12:47:08;;;;;;;4.43;3.30;;;18.60;61.50;;;;;;4861579;29;20105;-80
2024/03/21 12:49:56;;;;;;;4.93;3.65;;;18.60;61.50;;;;;;4862013;29;20055;-78
2024/03/21 12:52:41;;;;;;;5.00;3.40;;;18.60;61.50;;;;;;4856252;29;20064;-86
2024/03/21 12:55:26;;;;;;;3.17;2.88;;;18.60;61.50;;;;;;4850437;29;20087;-84
2024/03/21 12:58:11;;;;;;;3.72;3.40;;;18.50;61.30;;;;;;4867079;29;20420;-80
2024/03/21 13:00:56;;;;;;;4.35;3.20;;;18.50;61.30;;;;;;4853150;29;20043;-80
2024/03/21 13:03:40;;;;;;;4.38;3.78;;;18.50;61.20;;;;;;4848726;29;20053;-80
2024/03/21 13:06:25;;;;;;;3.78;3.45;;;18.50;61.20;;;;;;4864413;29;20119;-82
2024/03/21 13:09:10;;;;;;;4.70;3.97;;;18.50;61.10;;;;;;4869720;29;20057;-82
2024/03/21 13:11:54;;;;;;;4.70;3.75;;;18.60;61.20;;;;;;4863456;29;20426;-80
2024/03/21 13:14:39;;;;;;;4.53;4.03;;;18.60;61.10;;;;;;4867915;29;20125;-79
2024/03/21 13:17:24;;;;;;;4.85;4.30;;;18.70;61.20;;;;;;4838026;29;20044;-80
2024/03/21 13:20:11;;;;;;;5.35;4.78;;;18.70;61.00;;;;;;4870227;29;20515;-84
2024/03/21 13:22:56;;;;;;;4.28;3.88;;;18.80;61.10;;;;;;4853165;29;20060;-80
2024/03/21 13:25:41;;;;;;;4.07;3.67;;;18.80;60.80;;;;;;4850198;29;20060;-79
2024/03/21 13:28:25;;;;;;;4.40;4.00;;;19.00;61.10;;;;;;4861113;29;20057;-81
2024/03/21 13:31:10;;;;;;;4.47;4.07;;;19.00;60.90;;;;;;4848737;29;20101;-81
2024/03/21 13:33:56;;;;;;;5.05;4.47;;;19.10;60.90;;;;;;4863762;29;20480;-80
2024/03/21 13:36:40;;;;;;;5.43;4.85;;;19.20;61.00;;;;;;4872125;29;20105;-80
2024/03/21 13:39:26;;;;;;;4.43;4.13;;;19.30;60.90;;;;;;4864194;29;20218;-80
2024/03/21 13:42:15;;;;;;;4.55;4.15;;;19.40;60.80;;;;;;4868990;29;20061;-80
2024/03/21 13:45:00;;;;;;;5.03;4.57;;;19.60;60.90;;;;;;4868981;29;20536;-80
2024/03/21 13:47:45;;;;;;;5.35;4.55;;;19.70;60.90;;;;;;4861801;29;20608;-80
2024/03/21 13:50:29;;;;;;;5.10;4.65;;;19.70;60.80;;;;;;4868005;29;20103;-79
2024/03/21 13:53:16;;;;;;;5.05;4.65;;;19.70;60.60;;;;;;4854934;29;20040;-80
2024/03/21 13:56:01;;;;;;;5.35;4.95;;;19.80;60.60;;;;;;4869967;29;20072;-80
2024/03/21 13:58:49;;;;;;;5.10;4.60;;;19.80;60.50;;;;;;4864756;29;20053;-79
2024/03/21 14:01:34;;;;;;;5.35;4.95;;;19.80;60.50;;;;;;4876370;29;20062;-79
2024/03/21 14:04:27;;;;;;;5.22;4.72;;;19.80;60.30;;;;;;4874594;29;20056;-79
2024/03/21 14:07:11;;;;;;;6.00;5.22;;;19.80;60.20;;;;;;4867458;29;20798;-79
2024/03/21 14:09:57;;;;;;;5.93;5.43;;;19.80;60.20;;;;;;4861189;29;20053;-82
2024/03/21 14:12:42;;;;;;;5.03;4.65;;;19.70;60.00;;;;;;4859854;29;20109;-82
2024/03/21 14:15:30;;;;;;;5.60;5.10;;;19.70;59.90;;;;;;4852392;29;20415;-79
2024/03/21 14:18:15;;;;;;;6.28;5.65;;;19.80;60.00;;;;;;4860311;29;20048;-80